createdAt,value
2022-08-20T00:00:25.615Z,14.18
2022-08-20T00:02:59.053Z,14.07
2022-08-20T00:05:32.955Z,13.77
2022-08-20T00:08:00.348Z,14.93
2022-08-20T00:10:28.583Z,15.95
2022-08-20T00:12:55.588Z,16.27
2022-08-20T00:15:32.617Z,18.27
2022-08-20T00:17:59.633Z,17.88
2022-08-20T00:20:29.266Z,18.88
2022-08-20T00:22:57.616Z,19.20
2022-08-20T00:25:25.950Z,20.33
2022-08-20T00:27:52.430Z,19.67
2022-08-20T00:30:18.852Z,22.02
2022-08-20T00:32:47.563Z,20.92
2022-08-20T00:35:17.005Z,20.45
2022-08-20T00:37:43.922Z,21.75
2022-08-20T00:40:22.888Z,21.33
2022-08-20T00:42:57.427Z,21.67
2022-08-20T00:45:26.236Z,21.45
2022-08-20T00:47:55.251Z,22.42
2022-08-20T00:50:28.160Z,23.10
2022-08-20T00:52:54.794Z,22.85
2022-08-20T00:55:24.947Z,25.42
2022-08-20T00:58:01.076Z,26.00
2022-08-20T01:00:38.275Z,27.35
2022-08-20T01:03:09.761Z,28.17
2022-08-20T01:05:37.641Z,26.45
2022-08-20T01:08:04.678Z,25.45
2022-08-20T01:10:35.453Z,27.45
2022-08-20T01:13:08.357Z,26.63
2022-08-20T01:15:34.783Z,25.17
2022-08-20T01:18:01.808Z,21.45
2022-08-20T01:20:32.343Z,13.32
2022-08-20T01:23:29.775Z,8.88
2022-08-20T01:26:05.977Z,6.07
2022-08-20T01:28:57.322Z,7.18
2022-08-20T01:31:26.634Z,7.60
2022-08-20T01:33:54.957Z,6.72
2022-08-20T01:36:35.181Z,3.42
2022-08-20T01:39:03.353Z,3.42
2022-08-20T01:41:47.960Z,3.22
2022-08-20T01:44:18.440Z,3.95
2022-08-20T01:46:46.612Z,3.20
2022-08-20T01:49:23.145Z,4.05
2022-08-20T01:51:54.802Z,2.78
2022-08-20T01:54:21.943Z,2.88
2022-08-20T01:56:53.190Z,2.92
2022-08-20T01:59:19.786Z,3.33
2022-08-20T02:01:47.148Z,3.65
2022-08-20T02:04:15.564Z,2.90
2022-08-20T02:06:55.893Z,2.92
2022-08-20T02:09:25.503Z,3.30
2022-08-20T02:11:53.227Z,4.07
2022-08-20T02:14:20.208Z,4.63
2022-08-20T02:16:54.464Z,4.82
2022-08-20T02:19:31.693Z,6.68
2022-08-20T02:22:00.845Z,8.75
2022-08-20T02:24:27.304Z,8.52
2022-08-20T02:26:54.566Z,9.30
2022-08-20T02:29:21.012Z,14.82
2022-08-20T02:32:32.668Z,15.10
2022-08-20T02:34:36.782Z,18.42
2022-08-20T02:37:05.246Z,18.98
2022-08-20T02:39:32.036Z,19.02
2022-08-20T02:41:58.534Z,18.77
2022-08-20T02:44:25.081Z,18.10
2022-08-20T02:46:51.508Z,19.55
2022-08-20T02:49:18.513Z,19.30
2022-08-20T02:51:45.726Z,21.48
2022-08-20T02:54:12.524Z,22.60
2022-08-20T02:56:39.321Z,21.75
2022-08-20T02:59:05.997Z,21.13
2022-08-20T03:01:32.981Z,20.45
2022-08-20T03:04:00.092Z,20.33
2022-08-20T03:06:27.272Z,19.67
2022-08-20T03:08:54.332Z,16.80
2022-08-20T03:11:20.760Z,14.63
2022-08-20T03:13:47.481Z,15.52
2022-08-20T03:16:14.284Z,14.18
2022-08-20T03:18:44.152Z,13.48
2022-08-20T03:21:11.816Z,13.52
2022-08-20T03:23:41.920Z,14.98
2022-08-20T03:26:10.691Z,16.92
2022-08-20T03:28:37.853Z,21.45
2022-08-20T03:31:05.542Z,22.92
2022-08-20T03:33:32.356Z,20.88
2022-08-20T03:35:58.936Z,23.55
2022-08-20T03:38:29.239Z,22.65
2022-08-20T03:41:00.817Z,24.40
2022-08-20T03:43:27.291Z,24.55
2022-08-20T03:45:53.700Z,24.65
2022-08-20T03:48:20.878Z,23.33
2022-08-20T03:50:48.867Z,24.70
2022-08-20T03:53:15.691Z,24.10
2022-08-20T03:55:46.056Z,24.52
2022-08-20T03:58:34.911Z,25.35
2022-08-20T04:01:02.612Z,25.50
2022-08-20T04:03:29.092Z,25.90
2022-08-20T04:05:55.865Z,24.95
2022-08-20T04:08:32.156Z,25.52
2022-08-20T04:10:59.573Z,24.88
2022-08-20T04:13:27.832Z,24.13
2022-08-20T04:15:55.653Z,26.27
2022-08-20T04:18:24.238Z,24.77
2022-08-20T04:20:51.846Z,25.27
2022-08-20T04:23:18.482Z,25.65
2022-08-20T04:25:45.575Z,27.00
2022-08-20T04:28:15.837Z,24.35
2022-08-20T04:30:43.325Z,26.48
2022-08-20T04:33:13.889Z,24.85
2022-08-20T04:35:45.736Z,22.98
2022-08-20T04:38:15.357Z,24.08
2022-08-20T04:40:53.833Z,24.60
2022-08-20T04:43:22.878Z,25.17
2022-08-20T04:45:51.864Z,23.60
2022-08-20T04:48:19.471Z,27.05
2022-08-20T04:50:46.927Z,27.50
2022-08-20T04:53:17.665Z,26.63
2022-08-20T04:55:45.930Z,24.85
2022-08-20T04:58:24.431Z,25.77
2022-08-20T05:00:53.206Z,25.85
2022-08-20T05:03:20.023Z,24.10
2022-08-20T05:05:47.181Z,24.33
2022-08-20T05:08:20.161Z,24.85
2022-08-20T05:10:47.287Z,24.17
2022-08-20T05:13:13.712Z,23.58
2022-08-20T05:15:40.394Z,23.63
2022-08-20T05:18:08.512Z,25.05
2022-08-20T05:20:38.772Z,24.98
2022-08-20T05:23:06.757Z,26.15
2022-08-20T05:25:33.569Z,24.70
2022-08-20T05:28:02.077Z,23.50
2022-08-20T05:30:33.477Z,24.23
2022-08-20T05:33:01.865Z,24.40
2022-08-20T05:35:29.085Z,23.77
2022-08-20T05:37:55.964Z,25.92
2022-08-20T05:40:22.953Z,23.10
2022-08-20T05:42:49.837Z,24.85
2022-08-20T05:45:17.890Z,22.77
2022-08-20T05:47:44.610Z,23.60
2022-08-20T05:50:23.206Z,23.42
2022-08-20T05:52:50.058Z,22.42
2022-08-20T05:55:16.838Z,22.42
2022-08-20T05:57:43.255Z,22.52
2022-08-20T06:00:12.032Z,23.63
2022-08-20T06:02:57.742Z,22.42
2022-08-20T06:05:24.358Z,22.40
2022-08-20T06:07:50.964Z,23.95
2022-08-20T06:10:21.328Z,22.73
2022-08-20T06:12:47.758Z,22.15
2022-08-20T06:15:15.637Z,21.67
2022-08-20T06:17:42.091Z,21.65
2022-08-20T06:20:09.321Z,20.23
2022-08-20T06:22:36.107Z,20.95
2022-08-20T06:25:02.638Z,23.55
2022-08-20T06:27:29.592Z,22.70
2022-08-20T06:29:56.021Z,21.65
2022-08-20T06:32:32.441Z,20.80
2022-08-20T06:35:01.980Z,21.00
2022-08-20T06:37:31.588Z,22.38
2022-08-20T06:40:06.965Z,20.80
2022-08-20T06:42:33.416Z,21.17
2022-08-20T06:45:04.582Z,20.17
2022-08-20T06:47:31.269Z,19.00
2022-08-20T06:49:58.034Z,19.33
2022-08-20T06:52:51.506Z,17.00
2022-08-20T06:55:11.296Z,18.00
2022-08-20T06:57:38.528Z,18.58
2022-08-20T07:00:14.303Z,18.55
2022-08-20T07:02:41.163Z,18.10
2022-08-20T07:05:08.117Z,19.83
2022-08-20T07:07:34.642Z,19.20
2022-08-20T07:10:03.977Z,19.45
2022-08-20T07:12:30.388Z,19.73
2022-08-20T07:14:56.828Z,18.95
2022-08-20T07:17:24.250Z,19.23
2022-08-20T07:19:50.760Z,19.48
2022-08-20T07:22:17.533Z,19.60
2022-08-20T07:24:48.930Z,18.90
2022-08-20T07:27:20.840Z,17.85
2022-08-20T07:30:08.211Z,19.30
2022-08-20T07:32:45.166Z,17.67
2022-08-20T07:35:14.686Z,18.40
2022-08-20T07:37:43.146Z,18.63
2022-08-20T07:40:16.091Z,17.70
2022-08-20T07:42:42.546Z,18.65
2022-08-20T07:45:11.643Z,17.98
2022-08-20T07:47:39.672Z,18.85
2022-08-20T07:50:06.953Z,18.42
2022-08-20T07:52:35.267Z,18.38
2022-08-20T07:55:06.673Z,18.73
2022-08-20T07:57:33.119Z,18.83
2022-08-20T08:00:00.305Z,18.95
2022-08-20T08:02:27.845Z,17.98
2022-08-20T08:04:54.864Z,17.92
2022-08-20T08:07:22.213Z,17.67
2022-08-20T08:09:49.908Z,19.42
2022-08-20T08:12:17.137Z,19.17
2022-08-20T08:14:45.008Z,19.63
2022-08-20T08:17:12.536Z,19.42
2022-08-20T08:19:46.688Z,19.40
2022-08-20T08:22:16.228Z,18.25
2022-08-20T08:24:56.688Z,17.42
2022-08-20T08:27:24.069Z,18.33
2022-08-20T08:29:50.480Z,17.90
2022-08-20T08:32:17.094Z,19.67
2022-08-20T08:34:44.869Z,19.80
2022-08-20T08:37:11.687Z,18.27
2022-08-20T08:39:38.590Z,18.30
2022-08-20T08:42:20.592Z,18.38
2022-08-20T08:44:48.053Z,17.63
2022-08-20T08:47:25.077Z,19.80
2022-08-20T08:49:51.498Z,18.50
2022-08-20T08:52:24.856Z,19.40
2022-08-20T08:54:56.861Z,18.30
2022-08-20T08:57:24.120Z,16.88
2022-08-20T09:00:04.158Z,16.15
2022-08-20T09:02:32.439Z,17.00
2022-08-20T09:05:01.253Z,17.30
2022-08-20T09:07:31.248Z,17.13
2022-08-20T09:09:57.670Z,17.00
2022-08-20T09:12:27.677Z,16.65
2022-08-20T09:14:54.461Z,16.80
2022-08-20T09:17:22.611Z,15.60
2022-08-20T09:19:50.223Z,14.93
2022-08-20T09:22:19.464Z,14.05
2022-08-20T09:24:46.579Z,13.52
2022-08-20T09:27:13.248Z,12.43
2022-08-20T09:29:39.944Z,10.95
2022-08-20T09:32:13.308Z,12.05
2022-08-20T09:34:45.641Z,11.35
2022-08-20T09:37:12.453Z,11.82
2022-08-20T09:39:39.203Z,12.15
2022-08-20T09:42:14.759Z,12.48
2022-08-20T09:44:41.342Z,15.00
2022-08-20T09:47:07.940Z,15.02
2022-08-20T09:49:34.510Z,14.98
2022-08-20T09:52:01.442Z,14.32
2022-08-20T09:54:30.090Z,14.02
2022-08-20T09:57:04.958Z,12.65
2022-08-20T09:59:32.401Z,12.80
2022-08-20T10:01:58.952Z,13.68
2022-08-20T10:04:25.437Z,12.90
2022-08-20T10:06:51.859Z,13.73
2022-08-20T10:09:18.632Z,14.25
2022-08-20T10:11:45.078Z,14.88
2022-08-20T10:14:11.526Z,16.20
2022-08-20T10:16:37.922Z,16.30
2022-08-20T10:19:05.093Z,16.50
2022-08-20T10:21:35.400Z,17.00
2022-08-20T10:24:05.069Z,14.70
2022-08-20T10:26:31.548Z,14.63
2022-08-20T10:28:57.973Z,15.95
2022-08-20T10:31:24.508Z,16.20
2022-08-20T10:33:50.950Z,16.17
2022-08-20T10:36:18.200Z,17.25
2022-08-20T10:38:45.158Z,17.23
2022-08-20T10:41:11.854Z,16.05
2022-08-20T10:43:38.281Z,14.57
2022-08-20T10:46:04.820Z,13.50
2022-08-20T10:48:31.498Z,18.83
2022-08-20T10:50:58.028Z,25.75
2022-08-20T10:53:24.480Z,25.25
2022-08-20T10:55:53.414Z,17.80
2022-08-20T10:58:20.245Z,18.23
2022-08-20T11:00:50.829Z,21.17
2022-08-20T11:03:17.240Z,26.50
2022-08-20T11:05:43.651Z,28.30
2022-08-20T11:08:10.084Z,27.23
2022-08-20T11:10:38.225Z,27.95
2022-08-20T11:13:06.295Z,28.02
2022-08-20T11:15:34.409Z,27.38
2022-08-20T11:18:01.216Z,27.17
2022-08-20T11:20:27.773Z,29.10
2022-08-20T11:22:54.550Z,29.38
2022-08-20T11:25:21.291Z,31.58
2022-08-20T11:27:50.587Z,31.50
2022-08-20T11:30:26.386Z,33.50
2022-08-20T11:32:53.110Z,30.90
2022-08-20T11:38:08.066Z,32.38
2022-08-20T11:40:34.465Z,34.83
2022-08-20T11:43:17.499Z,38.45
2022-08-20T11:45:46.307Z,39.35
2022-08-20T11:48:13.334Z,39.03
2022-08-20T11:50:39.809Z,40.80
2022-08-20T11:53:06.230Z,42.83
2022-08-20T11:55:34.483Z,38.95
2022-08-20T11:58:01.816Z,35.95
2022-08-20T12:00:32.678Z,33.05
2022-08-20T12:03:05.583Z,32.95
2022-08-20T12:05:36.170Z,32.75
2022-08-20T12:08:03.248Z,29.05
2022-08-20T12:10:29.939Z,29.67
2022-08-20T12:12:57.092Z,30.13
2022-08-20T12:15:24.070Z,28.00
2022-08-20T12:17:50.479Z,29.27
2022-08-20T12:20:16.925Z,24.70
2022-08-20T12:22:44.614Z,23.65
2022-08-20T12:25:11.981Z,23.52
2022-08-20T12:27:39.326Z,22.42
2022-08-20T12:30:10.161Z,20.38
2022-08-20T12:32:36.611Z,18.10
2022-08-20T12:35:04.885Z,16.65
2022-08-20T12:37:31.916Z,15.05
2022-08-20T12:40:00.588Z,15.88
2022-08-20T12:42:29.152Z,13.65
2022-08-20T12:44:55.601Z,14.15
2022-08-20T12:47:26.318Z,13.48
2022-08-20T12:50:00.321Z,16.70
2022-08-20T12:52:28.518Z,17.45
2022-08-20T12:54:55.345Z,17.60
2022-08-20T12:57:34.170Z,17.10
2022-08-20T13:00:07.784Z,16.80
2022-08-20T13:02:34.189Z,16.02
2022-08-20T13:05:04.822Z,16.73
2022-08-20T13:07:32.398Z,14.95
2022-08-20T13:09:59.234Z,12.10
2022-08-20T13:12:25.670Z,9.05
2022-08-20T13:14:52.083Z,8.63
2022-08-20T13:17:18.811Z,8.35
2022-08-20T13:19:45.940Z,6.07
2022-08-20T13:22:14.625Z,5.57
2022-08-20T13:24:42.016Z,5.75
2022-08-20T13:27:14.160Z,6.22
2022-08-20T13:29:54.000Z,6.25
2022-08-20T13:32:23.442Z,5.13
2022-08-20T13:34:50.207Z,5.65
2022-08-20T13:37:24.505Z,5.93
2022-08-20T13:39:51.755Z,5.47
2022-08-20T13:42:18.260Z,5.10
2022-08-20T13:44:44.674Z,5.25
2022-08-20T13:47:28.497Z,5.50
2022-08-20T13:50:00.465Z,5.97
2022-08-20T13:52:27.442Z,5.95
2022-08-20T13:54:53.956Z,6.15
2022-08-20T13:57:21.764Z,5.50
2022-08-20T13:59:49.710Z,5.35
2022-08-20T14:02:17.318Z,3.28
2022-08-20T14:04:44.137Z,4.53
2022-08-20T14:07:19.218Z,3.88
2022-08-20T14:09:47.964Z,3.90
2022-08-20T14:12:15.164Z,4.20
2022-08-20T14:14:42.263Z,4.68
2022-08-20T14:17:15.108Z,3.88
2022-08-20T14:19:42.090Z,3.83
2022-08-20T14:22:08.596Z,4.13
2022-08-20T14:24:35.817Z,4.00
2022-08-20T14:27:06.829Z,4.03
2022-08-20T14:29:37.860Z,3.67
2022-08-20T14:32:05.383Z,3.83
2022-08-20T14:34:32.135Z,3.78
2022-08-20T14:37:17.064Z,3.67
2022-08-20T14:39:45.372Z,3.97
2022-08-20T14:42:12.876Z,3.92
2022-08-20T14:44:40.017Z,3.50
2022-08-20T14:47:22.683Z,3.65
2022-08-20T14:49:50.829Z,3.75
2022-08-20T14:52:18.988Z,3.58
2022-08-20T14:54:45.996Z,3.20
2022-08-20T14:57:14.518Z,4.28
2022-08-20T14:59:41.746Z,4.30
2022-08-20T15:02:10.047Z,4.28
2022-08-20T15:04:37.138Z,3.78
2022-08-20T15:07:08.100Z,4.22
2022-08-20T15:09:40.011Z,4.35
2022-08-20T15:12:06.523Z,4.25
2022-08-20T15:14:32.948Z,4.60
2022-08-20T15:17:00.032Z,4.07
2022-08-20T15:19:26.455Z,4.50
2022-08-20T15:21:52.880Z,4.40
2022-08-20T15:24:19.766Z,3.95
2022-08-20T15:26:46.487Z,3.83
2022-08-20T15:29:13.168Z,3.67
2022-08-20T15:31:49.477Z,3.50
2022-08-20T15:34:18.143Z,3.63
2022-08-20T15:36:45.296Z,3.70
2022-08-20T15:39:11.741Z,3.10
2022-08-20T15:41:38.168Z,3.40
2022-08-20T15:44:04.619Z,3.35
2022-08-20T15:46:36.258Z,3.40
2022-08-20T15:49:08.388Z,3.33
2022-08-20T15:51:41.192Z,3.35
2022-08-20T15:54:13.974Z,2.80
2022-08-20T15:57:08.542Z,2.92
2022-08-20T15:59:44.988Z,3.20
2022-08-20T16:02:25.691Z,3.00
2022-08-20T16:05:04.425Z,3.03
2022-08-20T16:07:59.346Z,2.75
2022-08-20T16:10:49.906Z,2.83
2022-08-20T16:13:31.734Z,2.88
2022-08-20T16:16:01.057Z,3.08
2022-08-20T16:18:31.896Z,2.83
2022-08-20T16:21:03.102Z,2.72
2022-08-20T16:26:39.494Z,2.38
2022-08-20T16:29:10.493Z,2.70
2022-08-20T16:31:55.147Z,2.42
2022-08-20T16:34:34.059Z,2.75
2022-08-20T16:37:22.880Z,2.58
2022-08-20T16:39:54.411Z,2.88
2022-08-20T16:42:22.754Z,2.45
2022-08-20T16:44:51.107Z,2.50
2022-08-20T16:47:25.735Z,3.35
2022-08-20T16:50:01.171Z,2.40
2022-08-20T16:52:27.869Z,2.63
2022-08-20T16:54:54.492Z,3.08
2022-08-20T16:57:21.069Z,2.53
2022-08-20T17:00:15.195Z,2.45
2022-08-20T17:03:02.512Z,2.75
2022-08-20T17:05:43.869Z,2.63
2022-08-20T17:11:06.913Z,3.00
2022-08-20T17:13:36.962Z,2.75
2022-08-20T17:16:23.668Z,3.22
2022-08-20T17:18:52.930Z,2.75
2022-08-20T17:21:25.983Z,2.80
2022-08-20T17:23:59.528Z,2.80
2022-08-20T17:26:37.537Z,3.42
2022-08-20T17:29:13.038Z,2.90
2022-08-20T17:31:46.958Z,3.22
2022-08-20T17:34:41.021Z,3.75
2022-08-20T17:37:19.150Z,3.10
2022-08-20T17:39:47.866Z,2.80
2022-08-20T17:42:25.484Z,2.50
2022-08-20T17:44:56.129Z,2.70
2022-08-20T17:47:31.465Z,2.80
2022-08-20T17:50:04.513Z,2.78
2022-08-20T17:52:36.365Z,3.30
2022-08-20T17:55:03.053Z,3.35
2022-08-20T17:57:33.428Z,3.00
2022-08-20T18:00:05.456Z,3.05
2022-08-20T18:02:33.540Z,2.80
2022-08-20T18:05:00.901Z,2.83
2022-08-20T18:07:33.996Z,3.03
2022-08-20T18:10:11.313Z,3.13
2022-08-20T18:13:00.249Z,3.00
2022-08-20T18:15:31.349Z,3.03
2022-08-20T18:18:03.651Z,3.20
2022-08-20T18:20:37.735Z,3.22
2022-08-20T18:23:10.389Z,3.22
2022-08-20T18:25:40.917Z,3.03
2022-08-20T18:28:21.989Z,2.90
2022-08-20T18:30:59.673Z,2.83
2022-08-20T18:33:31.756Z,2.65
2022-08-20T18:36:11.287Z,2.67
2022-08-20T18:38:41.831Z,3.17
2022-08-20T18:41:13.191Z,3.42
2022-08-20T18:43:40.305Z,3.42
2022-08-20T18:46:20.882Z,4.07
2022-08-20T18:48:56.573Z,3.17
2022-08-20T18:51:28.438Z,3.10
2022-08-20T18:53:54.915Z,3.50
2022-08-20T18:56:31.956Z,3.80
2022-08-20T18:59:06.938Z,3.35
2022-08-20T19:01:36.011Z,3.42
2022-08-20T19:04:14.900Z,3.95
2022-08-20T19:06:46.767Z,3.72
2022-08-20T19:09:50.485Z,4.20
2022-08-20T19:12:26.938Z,4.15
2022-08-20T19:15:13.435Z,4.68
2022-08-20T19:18:07.800Z,5.25
2022-08-20T19:20:36.602Z,4.05
2022-08-20T19:23:23.993Z,4.00
2022-08-20T19:25:53.780Z,3.83
2022-08-20T19:28:28.547Z,3.45
2022-08-20T19:30:56.106Z,3.47
2022-08-20T19:33:30.903Z,3.35
2022-08-20T19:36:28.141Z,3.33
2022-08-20T19:38:57.870Z,3.63
2022-08-20T19:41:31.253Z,3.70
2022-08-20T19:43:59.784Z,3.55
2022-08-20T19:46:35.210Z,3.80
2022-08-20T19:49:24.160Z,4.30
2022-08-20T19:52:21.649Z,4.10
2022-08-20T19:54:50.919Z,4.22
2022-08-20T19:57:19.110Z,4.40
2022-08-20T20:00:11.090Z,4.07
2022-08-20T20:02:38.062Z,3.75
2022-08-20T20:05:09.338Z,3.70
2022-08-20T20:07:37.741Z,4.27
2022-08-20T20:10:07.251Z,4.28
2022-08-20T20:12:34.083Z,5.25
2022-08-20T20:15:00.651Z,4.93
2022-08-20T20:17:31.815Z,4.75
2022-08-20T20:20:00.236Z,4.33
2022-08-20T20:22:30.994Z,4.57
2022-08-20T20:25:04.422Z,4.60
2022-08-20T20:27:32.016Z,4.45
2022-08-20T20:30:01.528Z,4.10
2022-08-20T20:32:28.086Z,4.95
2022-08-20T20:34:56.907Z,4.45
2022-08-20T20:37:49.718Z,4.80
2022-08-20T20:40:27.112Z,6.00
2022-08-20T20:42:58.238Z,5.70
2022-08-20T20:45:33.401Z,5.60
2022-08-20T20:48:00.104Z,4.93
2022-08-20T20:50:34.530Z,5.05
2022-08-20T20:53:01.518Z,5.28
2022-08-20T20:55:32.865Z,5.32
2022-08-20T20:57:59.888Z,4.45
2022-08-20T21:00:31.357Z,4.78
2022-08-20T21:02:57.910Z,4.65
2022-08-20T21:05:28.395Z,4.43
2022-08-20T21:08:00.890Z,4.50
2022-08-20T21:10:30.199Z,5.20
2022-08-20T21:12:56.767Z,4.88
2022-08-20T21:15:24.288Z,5.97
2022-08-20T21:17:50.783Z,4.80
2022-08-20T21:20:17.364Z,5.93
2022-08-20T21:22:43.878Z,5.45
2022-08-20T21:25:10.409Z,4.72
2022-08-20T21:27:37.117Z,4.65
2022-08-20T21:30:05.728Z,4.78
2022-08-20T21:32:32.326Z,4.60
2022-08-20T21:34:58.761Z,4.32
2022-08-20T21:37:25.263Z,4.82
2022-08-20T21:39:51.711Z,5.40
2022-08-20T21:42:28.525Z,5.50
2022-08-20T21:44:56.241Z,4.72
2022-08-20T21:47:22.818Z,4.97
2022-08-20T21:49:49.352Z,4.55
2022-08-20T21:52:15.784Z,4.78
2022-08-20T21:54:42.177Z,5.28
2022-08-20T21:57:14.780Z,5.20
2022-08-20T21:59:41.652Z,5.40
2022-08-20T22:02:08.319Z,5.93
2022-08-20T22:04:35.648Z,4.50
2022-08-20T22:07:02.666Z,5.80
2022-08-20T22:09:29.175Z,4.28
2022-08-20T22:12:00.039Z,4.53
2022-08-20T22:14:27.524Z,5.03
2022-08-20T22:16:53.946Z,5.47
2022-08-20T22:19:20.389Z,5.10
2022-08-20T22:21:47.175Z,4.55
2022-08-20T22:24:13.851Z,5.00
2022-08-20T22:26:41.172Z,4.68
2022-08-20T22:29:09.193Z,5.18
2022-08-20T22:31:37.866Z,5.25
2022-08-20T22:34:05.045Z,4.70
2022-08-20T22:36:31.924Z,4.95
2022-08-20T22:38:58.560Z,4.63
2022-08-20T22:41:25.309Z,4.50
2022-08-20T22:43:56.478Z,4.90
2022-08-20T22:46:26.863Z,4.70
2022-08-20T22:48:53.639Z,4.25
2022-08-20T22:51:27.312Z,4.72
2022-08-20T22:53:53.753Z,5.75
2022-08-20T22:56:21.910Z,4.97
2022-08-20T22:58:50.107Z,5.32
2022-08-20T23:01:17.599Z,5.07
2022-08-20T23:03:44.100Z,5.47
2022-08-20T23:06:10.788Z,5.07
2022-08-20T23:08:38.001Z,5.03
2022-08-20T23:11:04.491Z,7.15
2022-08-20T23:13:30.923Z,5.18
2022-08-20T23:15:57.420Z,6.50
2022-08-20T23:18:24.060Z,6.35
2022-08-20T23:20:56.396Z,5.00
2022-08-20T23:23:24.297Z,5.35
2022-08-20T23:25:51.722Z,5.15
2022-08-20T23:28:19.921Z,5.70
2022-08-20T23:30:46.864Z,5.80
2022-08-20T23:33:13.385Z,6.30
2022-08-20T23:35:40.172Z,6.13
2022-08-20T23:38:07.537Z,5.55
2022-08-20T23:40:34.335Z,5.53
2022-08-20T23:43:01.178Z,6.32
2022-08-20T23:45:28.543Z,5.40
2022-08-20T23:47:54.977Z,5.95
2022-08-20T23:50:25.700Z,6.80
2022-08-20T23:52:52.982Z,6.68
2022-08-20T23:55:20.316Z,5.82
2022-08-20T23:57:46.793Z,5.75
